createdAt,value
2017-11-28T00:01:23.675Z,4.40
2017-11-28T00:03:52.870Z,4.40
2017-11-28T00:06:20.330Z,4.40
2017-11-28T00:08:47.786Z,4.40
2017-11-28T00:11:15.248Z,4.40
2017-11-28T00:13:42.705Z,4.40
2017-11-28T00:16:10.220Z,4.50
2017-11-28T00:18:38.047Z,4.50
2017-11-28T00:21:06.039Z,4.40
2017-11-28T00:23:33.513Z,4.40
2017-11-28T00:26:04.781Z,4.30
2017-11-28T00:28:32.758Z,4.40
2017-11-28T00:31:01.183Z,4.40
2017-11-28T00:33:28.752Z,4.40
2017-11-28T00:35:56.221Z,4.40
2017-11-28T00:38:23.706Z,4.40
2017-11-28T00:40:51.193Z,4.40
2017-11-28T00:43:20.972Z,4.50
2017-11-28T00:45:48.445Z,4.50
2017-11-28T00:48:16.422Z,4.40
2017-11-28T00:50:44.881Z,4.50
2017-11-28T00:53:12.407Z,4.50
2017-11-28T00:55:39.843Z,4.50
2017-11-28T00:58:07.298Z,4.50
2017-11-28T01:00:34.755Z,4.50
2017-11-28T01:03:02.235Z,4.40
2017-11-28T01:05:29.668Z,4.40
2017-11-28T01:07:57.123Z,4.40
2017-11-28T01:10:28.579Z,4.40
2017-11-28T01:12:56.034Z,4.40
2017-11-28T01:15:24.334Z,4.40
2017-11-28T01:17:52.384Z,4.40
2017-11-28T01:20:19.902Z,4.40
2017-11-28T01:22:48.136Z,4.50
2017-11-28T01:25:15.630Z,4.50
2017-11-28T01:27:43.185Z,4.50
2017-11-28T01:30:17.099Z,4.40
2017-11-28T01:32:44.746Z,4.50
2017-11-28T01:35:13.134Z,4.50
2017-11-28T01:37:41.247Z,4.50
2017-11-28T01:40:08.699Z,4.50
2017-11-28T01:42:41.146Z,4.50
2017-11-28T01:45:08.590Z,4.50
2017-11-28T01:47:36.041Z,4.50
2017-11-28T01:50:04.297Z,4.50
2017-11-28T01:52:31.894Z,4.50
2017-11-28T01:54:59.338Z,4.50
2017-11-28T01:57:27.729Z,4.40
2017-11-28T01:59:55.228Z,4.40
2017-11-28T02:02:22.710Z,4.40
2017-11-28T02:04:50.164Z,4.40
2017-11-28T02:07:17.598Z,4.40
2017-11-28T02:09:45.057Z,4.40
2017-11-28T02:12:17.082Z,4.40
2017-11-28T02:14:44.523Z,4.40
2017-11-28T02:17:12.002Z,4.40
2017-11-28T02:19:41.898Z,4.30
2017-11-28T02:22:09.375Z,4.30
2017-11-28T02:24:38.366Z,4.40
2017-11-28T02:27:07.023Z,4.30
2017-11-28T02:29:34.527Z,4.30
2017-11-28T02:32:01.983Z,4.40
2017-11-28T02:34:29.433Z,4.40
2017-11-28T02:36:56.890Z,4.40
2017-11-28T02:39:25.824Z,4.30
2017-11-28T02:41:53.313Z,4.40
2017-11-28T02:44:20.959Z,4.40
2017-11-28T02:46:48.914Z,4.40
2017-11-28T02:49:20.183Z,4.40
2017-11-28T02:51:50.286Z,4.30
2017-11-28T02:54:17.733Z,4.30
2017-11-28T02:56:45.660Z,4.40
2017-11-28T02:59:25.679Z,4.40
2017-11-28T03:01:55.027Z,4.40
2017-11-28T03:04:22.482Z,4.40
2017-11-28T03:06:50.124Z,4.30
2017-11-28T03:09:18.960Z,4.30
2017-11-28T03:11:46.385Z,4.40
2017-11-28T03:14:48.010Z,4.30
2017-11-28T03:17:15.514Z,4.40
2017-11-28T03:19:45.379Z,4.30
2017-11-28T03:22:28.571Z,4.30
2017-11-28T03:25:01.473Z,4.40
2017-11-28T03:27:29.858Z,4.40
2017-11-28T03:29:58.118Z,4.30
2017-11-28T03:32:25.592Z,4.40
2017-11-28T03:34:53.033Z,4.30
2017-11-28T03:37:20.497Z,4.40
2017-11-28T03:39:48.887Z,4.30
2017-11-28T03:42:16.372Z,4.30
2017-11-28T03:48:04.185Z,4.40
2017-11-28T03:50:31.923Z,4.40
2017-11-28T03:52:59.373Z,4.30
2017-11-28T03:55:26.834Z,4.30
2017-11-28T03:57:54.318Z,4.30
2017-11-28T04:00:29.063Z,4.40
2017-11-28T04:02:57.347Z,4.40
2017-11-28T04:05:24.789Z,4.40
2017-11-28T04:07:52.488Z,4.40
2017-11-28T04:10:19.946Z,4.40
2017-11-28T04:12:47.386Z,4.40
2017-11-28T04:15:18.242Z,4.50
2017-11-28T04:17:45.708Z,4.40
2017-11-28T04:20:13.747Z,4.40
2017-11-28T04:22:42.269Z,4.40
2017-11-28T04:25:11.428Z,4.40
2017-11-28T04:27:38.918Z,4.40
2017-11-28T04:30:09.717Z,4.40
2017-11-28T04:32:37.370Z,4.40
2017-11-28T04:35:04.834Z,4.40
2017-11-28T04:37:32.287Z,4.40
2017-11-28T04:40:01.419Z,4.40
2017-11-28T04:42:28.950Z,4.40
2017-11-28T04:45:00.942Z,4.40
2017-11-28T04:47:28.422Z,4.40
2017-11-28T04:49:55.923Z,4.40
2017-11-28T04:52:23.386Z,4.40
2017-11-28T04:54:50.834Z,4.30
2017-11-28T04:57:18.328Z,4.40
2017-11-28T04:59:46.566Z,4.40
2017-11-28T05:02:14.301Z,4.30
2017-11-28T05:04:41.778Z,4.40
2017-11-28T05:07:09.454Z,4.40
2017-11-28T05:09:37.034Z,4.40
2017-11-28T05:12:04.506Z,4.30
2017-11-28T05:14:32.725Z,4.30
2017-11-28T05:17:03.082Z,4.30
2017-11-28T05:19:31.075Z,4.30
2017-11-28T05:21:59.309Z,4.30
2017-11-28T05:24:26.769Z,4.30
2017-11-28T05:26:54.472Z,4.30
2017-11-28T05:29:22.241Z,4.30
2017-11-28T05:31:49.670Z,4.30
2017-11-28T05:34:17.874Z,4.30
2017-11-28T05:36:46.714Z,4.30
2017-11-28T05:39:14.189Z,4.30
2017-11-28T05:41:43.157Z,4.40
2017-11-28T05:44:10.621Z,4.40
2017-11-28T05:46:41.581Z,4.40
2017-11-28T05:49:09.018Z,4.30
2017-11-28T05:51:37.417Z,4.30
2017-11-28T05:54:05.072Z,4.40
2017-11-28T05:56:32.546Z,4.30
2017-11-28T05:59:00.577Z,4.30
2017-11-28T06:01:28.039Z,4.30
2017-11-28T06:03:56.474Z,4.40
2017-11-28T06:06:23.928Z,4.40
2017-11-28T06:08:51.945Z,4.30
2017-11-28T06:11:19.938Z,4.30
2017-11-28T06:13:48.202Z,4.30
2017-11-28T06:16:15.782Z,4.30
2017-11-28T06:18:44.035Z,4.30
2017-11-28T06:21:11.478Z,4.30
2017-11-28T06:23:38.947Z,4.30
2017-11-28T06:26:06.658Z,4.40
2017-11-28T06:28:34.113Z,4.40
2017-11-28T06:31:05.330Z,4.40
2017-11-28T06:33:32.816Z,4.40
2017-11-28T06:36:00.329Z,4.50
2017-11-28T06:38:27.786Z,4.50
2017-11-28T06:40:55.321Z,4.50
2017-11-28T06:43:23.456Z,4.50
2017-11-28T06:45:50.923Z,4.60
2017-11-28T06:48:19.304Z,4.60
2017-11-28T06:50:46.750Z,4.60
2017-11-28T06:53:14.966Z,4.60
2017-11-28T06:55:44.160Z,4.60
2017-11-28T06:58:11.615Z,4.60
2017-11-28T07:00:39.084Z,4.70
2017-11-28T07:03:06.647Z,4.60
2017-11-28T07:05:34.087Z,4.60
2017-11-28T07:08:01.561Z,4.60
2017-11-28T07:10:29.001Z,4.60
2017-11-28T07:12:58.132Z,4.60
2017-11-28T07:15:25.753Z,4.60
2017-11-28T07:17:53.210Z,4.60
2017-11-28T07:20:20.832Z,4.60
2017-11-28T07:22:48.282Z,4.60
2017-11-28T07:25:16.336Z,4.70
2017-11-28T07:27:43.809Z,4.70
2017-11-28T07:30:11.267Z,4.70
2017-11-28T07:32:43.646Z,4.70
2017-11-28T07:35:11.398Z,4.70
2017-11-28T07:37:38.866Z,4.70
2017-11-28T07:40:06.322Z,4.80
2017-11-28T07:42:34.576Z,4.80
2017-11-28T07:45:02.276Z,4.80
2017-11-28T07:47:34.082Z,4.80
2017-11-28T07:50:01.550Z,4.80
2017-11-28T07:52:29.027Z,4.80
2017-11-28T07:54:56.589Z,4.80
2017-11-28T07:57:24.025Z,4.80
2017-11-28T07:59:51.810Z,4.80
2017-11-28T08:02:24.275Z,4.90
2017-11-28T08:04:51.757Z,4.90
2017-11-28T08:07:20.941Z,5.00
2017-11-28T08:09:48.380Z,5.00
2017-11-28T08:12:15.856Z,5.00
2017-11-28T08:14:43.324Z,5.00
2017-11-28T08:17:10.850Z,5.00
2017-11-28T08:19:38.338Z,5.00
2017-11-28T08:22:06.561Z,5.10
2017-11-28T08:24:34.034Z,5.10
2017-11-28T08:27:01.470Z,5.30
2017-11-28T08:29:28.959Z,5.50
2017-11-28T08:31:56.682Z,5.60
2017-11-28T08:34:35.246Z,5.70
2017-11-28T08:37:02.690Z,5.90
2017-11-28T08:39:30.219Z,6.00
2017-11-28T08:41:57.670Z,6.10
2017-11-28T08:44:25.106Z,6.10
2017-11-28T08:46:52.591Z,6.00
2017-11-28T08:49:23.150Z,5.90
2017-11-28T08:51:50.741Z,5.90
2017-11-28T08:54:18.690Z,5.80
2017-11-28T08:56:46.162Z,5.70
2017-11-28T08:59:14.374Z,5.70
2017-11-28T09:01:42.456Z,5.70
2017-11-28T09:04:09.929Z,5.70
2017-11-28T09:06:37.527Z,5.80
2017-11-28T09:09:05.790Z,5.80
2017-11-28T09:11:33.274Z,5.80
2017-11-28T09:14:00.858Z,5.80
2017-11-28T09:16:28.308Z,5.80
2017-11-28T09:18:57.474Z,5.60
2017-11-28T09:21:25.519Z,5.60
2017-11-28T09:23:53.038Z,5.60
2017-11-28T09:26:21.589Z,5.60
2017-11-28T09:28:49.825Z,5.70
2017-11-28T09:31:17.462Z,5.70
2017-11-28T09:33:44.933Z,5.90
2017-11-28T09:36:12.553Z,6.00
2017-11-28T09:38:41.745Z,6.10
2017-11-28T09:41:11.127Z,6.10
2017-11-28T09:43:38.608Z,6.10
2017-11-28T09:46:07.186Z,6.20
2017-11-28T09:48:34.647Z,6.20
2017-11-28T09:51:02.204Z,6.20
2017-11-28T09:53:30.220Z,6.10
2017-11-28T09:55:57.707Z,6.00
2017-11-28T09:58:25.139Z,5.90
2017-11-28T10:00:52.646Z,5.90
2017-11-28T10:03:20.949Z,5.80
2017-11-28T10:05:49.880Z,5.70
2017-11-28T10:08:17.342Z,5.70
2017-11-28T10:10:44.813Z,5.80
2017-11-28T10:13:12.562Z,5.80
2017-11-28T10:15:40.624Z,5.80
2017-11-28T10:18:09.630Z,5.80
2017-11-28T10:20:37.093Z,5.80
2017-11-28T10:23:12.886Z,5.80
2017-11-28T10:25:40.338Z,5.70
2017-11-28T10:28:07.775Z,5.70
2017-11-28T10:30:35.238Z,5.70
2017-11-28T10:33:02.979Z,5.60
2017-11-28T10:35:33.200Z,5.60
2017-11-28T10:38:00.700Z,5.60
2017-11-28T10:40:28.337Z,5.60
2017-11-28T10:42:56.104Z,5.70
2017-11-28T10:45:23.554Z,5.70
2017-11-28T10:47:51.063Z,5.80
2017-11-28T10:50:21.671Z,5.90
2017-11-28T10:52:52.454Z,5.90
2017-11-28T10:55:21.504Z,6.00
2017-11-28T10:57:49.454Z,6.00
2017-11-28T11:00:19.038Z,6.10
2017-11-28T11:02:47.259Z,6.20
2017-11-28T11:05:19.180Z,6.10
2017-11-28T11:07:46.630Z,6.20
2017-11-28T11:10:14.867Z,6.20
2017-11-28T11:12:43.293Z,6.20
2017-11-28T11:15:11.538Z,6.20
2017-11-28T11:17:39.025Z,6.20
2017-11-28T11:20:06.632Z,6.20
2017-11-28T11:22:34.065Z,6.20
2017-11-28T11:25:03.213Z,6.30
2017-11-28T11:27:30.660Z,6.30
2017-11-28T11:29:58.164Z,6.30
2017-11-28T11:32:25.881Z,6.30
2017-11-28T11:34:53.348Z,6.40
2017-11-28T11:37:22.858Z,6.70
2017-11-28T11:39:50.382Z,6.70
2017-11-28T11:42:17.876Z,6.90
2017-11-28T11:44:45.310Z,7.10
2017-11-28T11:47:13.358Z,7.20
2017-11-28T11:49:42.635Z,7.30
2017-11-28T11:52:11.871Z,7.30
2017-11-28T11:54:39.329Z,7.30
2017-11-28T11:57:06.990Z,7.30
2017-11-28T11:59:34.469Z,7.20
2017-11-28T12:02:01.908Z,7.00
2017-11-28T12:04:29.345Z,6.90
2017-11-28T12:07:08.370Z,6.80
2017-11-28T12:09:36.036Z,6.80
2017-11-28T12:12:03.522Z,6.80
2017-11-28T12:14:31.504Z,6.70
2017-11-28T12:16:58.986Z,6.60
2017-11-28T12:19:27.207Z,6.20
2017-11-28T12:21:55.029Z,6.20
2017-11-28T12:24:22.490Z,6.10
2017-11-28T12:26:50.765Z,6.10
2017-11-28T12:29:19.426Z,5.90
2017-11-28T12:31:47.502Z,5.90
2017-11-28T12:34:16.698Z,5.70
2017-11-28T12:36:44.167Z,5.70
2017-11-28T12:39:11.622Z,5.60
2017-11-28T12:41:39.842Z,5.70
2017-11-28T12:44:07.346Z,5.70
2017-11-28T12:46:34.794Z,5.60
2017-11-28T12:49:02.235Z,5.50
2017-11-28T12:51:29.705Z,5.50
2017-11-28T12:53:57.228Z,5.50
2017-11-28T12:56:24.689Z,5.50
2017-11-28T12:58:52.295Z,5.50
2017-11-28T13:01:19.805Z,5.60
2017-11-28T13:03:48.938Z,5.70
2017-11-28T13:06:16.510Z,5.70
2017-11-28T13:08:43.974Z,5.70
2017-11-28T13:11:11.407Z,5.70
2017-11-28T13:13:38.884Z,5.70
2017-11-28T13:16:07.337Z,5.70
2017-11-28T13:18:34.889Z,5.60
2017-11-28T13:21:02.922Z,5.60
2017-11-28T13:23:35.998Z,5.50
2017-11-28T13:26:04.470Z,5.50
2017-11-28T13:28:32.767Z,5.40
2017-11-28T13:31:00.238Z,5.50
2017-11-28T13:33:27.721Z,5.50
2017-11-28T13:35:55.736Z,5.60
2017-11-28T13:38:24.006Z,5.70
2017-11-28T13:40:52.302Z,5.70
2017-11-28T13:43:19.828Z,5.80
2017-11-28T13:45:47.833Z,5.90
2017-11-28T13:48:15.274Z,5.80
2017-11-28T13:50:43.521Z,5.70
2017-11-28T13:53:15.187Z,5.70
2017-11-28T13:55:42.629Z,5.70
2017-11-28T13:58:10.084Z,5.70
2017-11-28T14:00:37.557Z,5.70
2017-11-28T14:03:06.189Z,5.80
2017-11-28T14:05:33.714Z,5.80
2017-11-28T14:08:01.163Z,5.80
2017-11-28T14:10:28.599Z,5.80
2017-11-28T14:12:56.224Z,5.80
2017-11-28T14:15:23.662Z,5.70
2017-11-28T14:17:51.198Z,5.60
2017-11-28T14:20:20.339Z,5.60
2017-11-28T14:22:53.544Z,5.60
2017-11-28T14:25:36.686Z,5.50
2017-11-28T14:28:14.602Z,5.30
2017-11-28T14:33:45.656Z,5.10
2017-11-28T14:36:27.986Z,5.20
2017-11-28T14:39:15.502Z,5.10
2017-11-28T14:41:43.010Z,5.10
2017-11-28T14:47:13.186Z,5.00
2017-11-28T14:49:40.635Z,5.00
2017-11-28T14:55:17.029Z,5.00
2017-11-28T14:57:51.044Z,5.20
2017-11-28T15:00:23.966Z,5.20
2017-11-28T15:02:57.114Z,5.20
2017-11-28T15:05:30.217Z,5.10
2017-11-28T15:08:03.397Z,5.10
2017-11-28T15:10:33.937Z,5.20
2017-11-28T15:13:07.090Z,5.10
2017-11-28T15:18:37.293Z,5.10
2017-11-28T15:21:07.080Z,5.20
2017-11-28T15:23:37.192Z,5.20
2017-11-28T15:26:04.654Z,5.20
2017-11-28T15:28:34.838Z,5.20
2017-11-28T15:31:06.951Z,5.20
2017-11-28T15:33:34.438Z,5.30
2017-11-28T15:36:03.566Z,5.30
2017-11-28T15:38:31.124Z,5.30
2017-11-28T15:41:01.645Z,5.30
2017-11-28T15:43:29.479Z,5.30
2017-11-28T15:45:58.848Z,5.30
2017-11-28T15:48:26.311Z,5.20
2017-11-28T15:50:54.072Z,5.30
2017-11-28T15:53:21.530Z,5.30
2017-11-28T15:55:52.989Z,5.30
2017-11-28T15:58:20.460Z,5.30
2017-11-28T16:00:47.907Z,5.20
2017-11-28T16:03:15.418Z,5.30
2017-11-28T16:05:42.930Z,5.30
2017-11-28T16:08:12.095Z,5.20
2017-11-28T16:10:39.594Z,5.20
2017-11-28T16:13:07.103Z,5.20
2017-11-28T16:15:34.574Z,5.20
2017-11-28T16:18:02.013Z,5.20
2017-11-28T16:20:29.509Z,5.20
2017-11-28T16:22:56.964Z,5.10
2017-11-28T16:25:26.159Z,5.10
2017-11-28T16:27:54.126Z,5.10
2017-11-28T16:30:21.592Z,5.00
2017-11-28T16:32:50.066Z,4.90
2017-11-28T16:35:18.319Z,4.90
2017-11-28T16:37:45.758Z,4.90
2017-11-28T16:40:13.218Z,5.00
2017-11-28T16:42:40.768Z,5.00
2017-11-28T16:45:08.298Z,5.00
2017-11-28T16:47:35.737Z,5.00
2017-11-28T16:50:04.114Z,4.90
2017-11-28T16:52:31.569Z,4.90
2017-11-28T16:54:59.033Z,4.90
2017-11-28T16:57:26.488Z,4.90
2017-11-28T16:59:53.952Z,4.80
2017-11-28T17:02:22.153Z,4.80
2017-11-28T17:04:49.628Z,4.80
2017-11-28T17:07:18.151Z,4.80
2017-11-28T17:09:45.587Z,4.80
2017-11-28T17:12:17.035Z,4.90
2017-11-28T17:14:44.500Z,4.90
2017-11-28T17:17:13.197Z,5.00
2017-11-28T17:19:40.661Z,5.00
2017-11-28T17:22:08.133Z,5.00
2017-11-28T17:24:37.077Z,5.00
2017-11-28T17:27:09.757Z,5.10
2017-11-28T17:29:38.169Z,5.10
2017-11-28T17:32:05.910Z,5.10
2017-11-28T17:34:33.354Z,5.10
2017-11-28T17:37:00.887Z,5.20
2017-11-28T17:39:28.340Z,5.10
2017-11-28T17:42:02.191Z,5.00
2017-11-28T17:44:30.187Z,5.00
2017-11-28T17:46:57.740Z,5.00
2017-11-28T17:49:25.241Z,4.90
2017-11-28T17:51:52.697Z,4.90
2017-11-28T17:54:20.163Z,4.80
2017-11-28T17:56:47.652Z,4.90
2017-11-28T17:59:15.137Z,5.00
2017-11-28T18:01:43.410Z,5.00
2017-11-28T18:04:12.065Z,5.10
2017-11-28T18:06:40.066Z,5.10
2017-11-28T18:09:07.502Z,5.00
2017-11-28T18:11:35.697Z,5.10
2017-11-28T18:14:03.233Z,5.10
2017-11-28T18:16:30.694Z,5.00
2017-11-28T18:18:58.185Z,5.00
2017-11-28T18:21:26.726Z,5.10
2017-11-28T18:23:54.200Z,5.10
2017-11-28T18:26:21.697Z,5.00
2017-11-28T18:28:50.595Z,4.90
2017-11-28T18:31:18.061Z,4.90
2017-11-28T18:33:45.521Z,4.90
2017-11-28T18:36:12.982Z,4.90
2017-11-28T18:38:40.455Z,5.00
2017-11-28T18:41:08.560Z,4.90
2017-11-28T18:43:36.018Z,5.00
2017-11-28T18:46:03.989Z,4.90
2017-11-28T18:48:31.534Z,4.90
2017-11-28T18:50:59.569Z,5.00
2017-11-28T18:53:27.877Z,4.90
2017-11-28T18:55:55.512Z,4.90
2017-11-28T18:58:23.041Z,4.90
2017-11-28T19:00:50.505Z,4.90
2017-11-28T19:03:18.010Z,4.90
2017-11-28T19:05:46.086Z,4.80
2017-11-28T19:08:13.561Z,4.80
2017-11-28T19:10:42.346Z,4.80
2017-11-28T19:13:10.095Z,4.80
2017-11-28T19:15:37.522Z,4.80
2017-11-28T19:18:07.438Z,4.80
2017-11-28T19:20:34.898Z,4.70
2017-11-28T19:23:02.526Z,4.60
2017-11-28T19:25:31.973Z,4.60
2017-11-28T19:27:59.414Z,4.50
2017-11-28T19:30:27.247Z,4.50
2017-11-28T19:32:56.193Z,4.60
2017-11-28T19:35:23.783Z,4.60
2017-11-28T19:37:52.005Z,4.70
2017-11-28T19:40:21.018Z,4.70
2017-11-28T19:42:48.854Z,4.70
2017-11-28T19:45:16.567Z,4.70
2017-11-28T19:47:46.772Z,4.60
2017-11-28T19:50:14.243Z,4.60
2017-11-28T19:52:41.686Z,4.70
2017-11-28T19:55:09.930Z,4.80
2017-11-28T19:57:37.378Z,4.70
2017-11-28T20:00:04.876Z,4.70
2017-11-28T20:02:32.343Z,4.70
2017-11-28T20:05:00.698Z,4.60
2017-11-28T20:07:29.308Z,4.60
2017-11-28T20:09:56.950Z,4.60
2017-11-28T20:12:24.403Z,4.70
2017-11-28T20:14:52.482Z,4.70
2017-11-28T20:17:27.634Z,4.80
2017-11-28T20:19:55.090Z,4.80
2017-11-28T20:22:23.304Z,4.70
2017-11-28T20:24:50.741Z,4.80
2017-11-28T20:27:18.924Z,4.80
2017-11-28T20:29:47.073Z,4.70
2017-11-28T20:32:14.545Z,4.80
2017-11-28T20:34:41.985Z,4.80
2017-11-28T20:37:10.241Z,4.70
2017-11-28T20:39:38.297Z,4.70
2017-11-28T20:42:06.448Z,4.70
2017-11-28T20:44:33.926Z,4.70
2017-11-28T20:47:01.398Z,4.70
2017-11-28T20:49:32.777Z,4.70
2017-11-28T20:52:00.266Z,4.70
2017-11-28T20:54:27.816Z,4.70
2017-11-28T20:56:55.330Z,4.70
2017-11-28T20:59:22.869Z,4.70
2017-11-28T21:01:50.401Z,4.70
2017-11-28T21:04:17.899Z,4.70
2017-11-28T21:06:45.375Z,4.70
2017-11-28T21:09:12.829Z,4.60
2017-11-28T21:11:41.095Z,4.70
2017-11-28T21:14:09.331Z,4.60
2017-11-28T21:16:44.661Z,4.60
2017-11-28T21:19:12.113Z,4.60
2017-11-28T21:21:39.573Z,4.60
2017-11-28T21:24:07.083Z,4.60
2017-11-28T21:26:34.745Z,4.60
2017-11-28T21:29:02.881Z,4.60
2017-11-28T21:31:30.917Z,4.60
2017-11-28T21:33:59.164Z,4.60
2017-11-28T21:36:26.730Z,4.60
2017-11-28T21:38:56.002Z,4.50
2017-11-28T21:41:23.505Z,4.50
2017-11-28T21:43:51.765Z,4.50
2017-11-28T21:46:24.649Z,4.50
2017-11-28T21:48:52.089Z,4.40
2017-11-28T21:51:19.567Z,4.40
2017-11-28T21:53:47.241Z,4.50
2017-11-28T21:56:15.600Z,4.40
2017-11-28T21:58:43.127Z,4.40
2017-11-28T22:01:10.618Z,4.40
2017-11-28T22:03:38.116Z,4.40
2017-11-28T22:06:05.697Z,4.40
2017-11-28T22:08:33.178Z,4.50
2017-11-28T22:11:00.618Z,4.50
2017-11-28T22:13:29.318Z,4.60
2017-11-28T22:15:56.862Z,4.60
2017-11-28T22:18:24.396Z,4.60
2017-11-28T22:20:51.874Z,4.50
2017-11-28T22:23:19.352Z,4.60
2017-11-28T22:25:46.798Z,4.50
2017-11-28T22:28:17.122Z,4.60
2017-11-28T22:30:44.602Z,4.50
2017-11-28T22:33:16.146Z,4.50
2017-11-28T22:35:44.518Z,4.50
2017-11-28T22:38:12.584Z,4.50
2017-11-28T22:40:40.872Z,4.50
2017-11-28T22:43:08.341Z,4.40
2017-11-28T22:45:36.681Z,4.50
2017-11-28T22:48:07.658Z,4.50
2017-11-28T22:50:35.100Z,4.40
2017-11-28T22:53:03.490Z,4.50
2017-11-28T22:55:30.954Z,4.40
2017-11-28T22:57:58.417Z,4.40
2017-11-28T23:00:25.886Z,4.40
2017-11-28T23:02:57.621Z,4.40
2017-11-28T23:05:25.383Z,4.50
2017-11-28T23:07:52.889Z,4.40
2017-11-28T23:10:20.352Z,4.40
2017-11-28T23:12:47.846Z,4.40
2017-11-28T23:15:15.417Z,4.40
2017-11-28T23:17:53.406Z,4.30
2017-11-28T23:20:20.867Z,4.30
2017-11-28T23:22:48.339Z,4.20
2017-11-28T23:25:16.090Z,4.20
2017-11-28T23:27:43.551Z,4.30
2017-11-28T23:30:11.042Z,4.30
2017-11-28T23:32:42.455Z,4.20
2017-11-28T23:35:10.454Z,4.20
2017-11-28T23:37:38.230Z,4.30
2017-11-28T23:40:05.725Z,4.30
2017-11-28T23:42:33.220Z,4.30
2017-11-28T23:45:00.965Z,4.30
2017-11-28T23:47:28.417Z,4.30
2017-11-28T23:49:56.522Z,4.20
2017-11-28T23:52:24.061Z,4.10
2017-11-28T23:54:51.506Z,4.10
2017-11-28T23:57:18.967Z,4.10
2017-11-28T23:59:46.732Z,4.20
